sensor_id;sensor_type;location;lat;lon;timestamp;P1;durP1;ratioP1;P2;durP2;ratioP2
13816;SDS011;6979;52.116;5.286;2024-01-25T00:00:26;18.00;;;5.33;;
13816;SDS011;6979;52.116;5.286;2024-01-25T00:03:03;14.67;;;4.87;;
13816;SDS011;6979;52.116;5.286;2024-01-25T00:05:32;16.17;;;5.10;;
13816;SDS011;6979;52.116;5.286;2024-01-25T00:07:58;11.43;;;4.50;;
13816;SDS011;6979;52.116;5.286;2024-01-25T00:10:25;13.93;;;4.50;;
13816;SDS011;6979;52.116;5.286;2024-01-25T00:12:52;14.00;;;4.93;;
13816;SDS011;6979;52.116;5.286;2024-01-25T00:15:19;13.40;;;4.37;;
13816;SDS011;6979;52.116;5.286;2024-01-25T00:17:46;14.47;;;4.57;;
13816;SDS011;6979;52.116;5.286;2024-01-25T00:20:13;10.97;;;4.23;;
13816;SDS011;6979;52.116;5.286;2024-01-25T00:22:41;16.47;;;5.67;;
13816;SDS011;6979;52.116;5.286;2024-01-25T00:25:10;15.53;;;4.83;;
13816;SDS011;6979;52.116;5.286;2024-01-25T00:27:37;15.70;;;5.57;;
13816;SDS011;6979;52.116;5.286;2024-01-25T00:30:04;17.67;;;5.13;;
13816;SDS011;6979;52.116;5.286;2024-01-25T00:32:32;13.47;;;5.07;;
13816;SDS011;6979;52.116;5.286;2024-01-25T00:34:59;13.60;;;4.70;;
13816;SDS011;6979;52.116;5.286;2024-01-25T00:37:26;10.90;;;5.10;;
13816;SDS011;6979;52.116;5.286;2024-01-25T00:39:55;10.43;;;4.53;;
13816;SDS011;6979;52.116;5.286;2024-01-25T00:42:23;15.80;;;5.03;;
13816;SDS011;6979;52.116;5.286;2024-01-25T00:44:52;13.43;;;5.30;;
13816;SDS011;6979;52.116;5.286;2024-01-25T00:47:23;13.93;;;4.60;;
13816;SDS011;6979;52.116;5.286;2024-01-25T00:49:50;18.83;;;5.07;;
13816;SDS011;6979;52.116;5.286;2024-01-25T00:52:18;18.63;;;5.43;;
13816;SDS011;6979;52.116;5.286;2024-01-25T00:54:45;13.13;;;4.60;;
13816;SDS011;6979;52.116;5.286;2024-01-25T00:57:14;15.90;;;5.23;;
13816;SDS011;6979;52.116;5.286;2024-01-25T00:59:41;9.73;;;5.00;;
13816;SDS011;6979;52.116;5.286;2024-01-25T01:02:10;12.97;;;4.80;;
13816;SDS011;6979;52.116;5.286;2024-01-25T01:04:38;15.40;;;5.00;;
13816;SDS011;6979;52.116;5.286;2024-01-25T01:07:06;13.13;;;4.30;;
13816;SDS011;6979;52.116;5.286;2024-01-25T01:09:34;18.47;;;4.67;;
13816;SDS011;6979;52.116;5.286;2024-01-25T01:12:01;17.80;;;5.83;;
13816;SDS011;6979;52.116;5.286;2024-01-25T01:14:32;10.80;;;4.83;;
13816;SDS011;6979;52.116;5.286;2024-01-25T01:16:59;13.37;;;5.17;;
13816;SDS011;6979;52.116;5.286;2024-01-25T01:19:26;15.70;;;6.10;;
13816;SDS011;6979;52.116;5.286;2024-01-25T01:21:53;14.23;;;4.20;;
13816;SDS011;6979;52.116;5.286;2024-01-25T01:24:20;17.00;;;4.80;;
13816;SDS011;6979;52.116;5.286;2024-01-25T01:26:49;16.00;;;4.80;;
13816;SDS011;6979;52.116;5.286;2024-01-25T01:29:18;11.20;;;4.57;;
13816;SDS011;6979;52.116;5.286;2024-01-25T01:31:50;15.33;;;4.77;;
13816;SDS011;6979;52.116;5.286;2024-01-25T01:34:20;13.63;;;4.17;;
13816;SDS011;6979;52.116;5.286;2024-01-25T01:36:49;17.10;;;4.83;;
13816;SDS011;6979;52.116;5.286;2024-01-25T01:39:16;16.73;;;5.30;;
13816;SDS011;6979;52.116;5.286;2024-01-25T01:41:46;15.47;;;5.10;;
13816;SDS011;6979;52.116;5.286;2024-01-25T01:44:13;12.70;;;5.03;;
13816;SDS011;6979;52.116;5.286;2024-01-25T01:46:40;14.23;;;4.60;;
13816;SDS011;6979;52.116;5.286;2024-01-25T01:49:14;14.03;;;4.67;;
13816;SDS011;6979;52.116;5.286;2024-01-25T01:51:41;19.47;;;5.60;;
13816;SDS011;6979;52.116;5.286;2024-01-25T01:54:09;17.80;;;5.10;;
13816;SDS011;6979;52.116;5.286;2024-01-25T01:56:36;17.20;;;4.93;;
13816;SDS011;6979;52.116;5.286;2024-01-25T01:59:05;14.43;;;5.10;;
13816;SDS011;6979;52.116;5.286;2024-01-25T02:01:35;11.77;;;5.80;;
13816;SDS011;6979;52.116;5.286;2024-01-25T02:04:02;12.70;;;4.70;;
13816;SDS011;6979;52.116;5.286;2024-01-25T02:06:31;17.90;;;4.70;;
13816;SDS011;6979;52.116;5.286;2024-01-25T02:09:00;17.17;;;5.50;;
13816;SDS011;6979;52.116;5.286;2024-01-25T02:11:30;16.20;;;5.53;;
13816;SDS011;6979;52.116;5.286;2024-01-25T02:13:57;18.87;;;4.90;;
13816;SDS011;6979;52.116;5.286;2024-01-25T02:16:24;16.37;;;4.67;;
13816;SDS011;6979;52.116;5.286;2024-01-25T02:18:51;17.57;;;4.57;;
13816;SDS011;6979;52.116;5.286;2024-01-25T02:21:19;18.93;;;9.67;;
13816;SDS011;6979;52.116;5.286;2024-01-25T02:23:47;24.23;;;13.37;;
13816;SDS011;6979;52.116;5.286;2024-01-25T02:26:16;19.60;;;7.77;;
13816;SDS011;6979;52.116;5.286;2024-01-25T02:28:43;17.13;;;6.23;;
13816;SDS011;6979;52.116;5.286;2024-01-25T02:31:10;18.60;;;7.73;;
13816;SDS011;6979;52.116;5.286;2024-01-25T02:33:37;17.17;;;6.57;;
13816;SDS011;6979;52.116;5.286;2024-01-25T02:36:04;11.23;;;5.27;;
13816;SDS011;6979;52.116;5.286;2024-01-25T02:38:32;20.23;;;5.33;;
13816;SDS011;6979;52.116;5.286;2024-01-25T02:41:03;12.63;;;4.80;;
13816;SDS011;6979;52.116;5.286;2024-01-25T02:43:30;12.83;;;4.47;;
13816;SDS011;6979;52.116;5.286;2024-01-25T02:46:00;13.37;;;4.83;;
13816;SDS011;6979;52.116;5.286;2024-01-25T02:48:27;19.83;;;6.17;;
13816;SDS011;6979;52.116;5.286;2024-01-25T02:50:54;13.67;;;4.60;;
13816;SDS011;6979;52.116;5.286;2024-01-25T02:53:21;10.50;;;4.70;;
13816;SDS011;6979;52.116;5.286;2024-01-25T02:55:48;15.93;;;5.03;;
13816;SDS011;6979;52.116;5.286;2024-01-25T02:58:16;19.40;;;5.93;;
13816;SDS011;6979;52.116;5.286;2024-01-25T03:00:43;12.13;;;4.17;;
13816;SDS011;6979;52.116;5.286;2024-01-25T03:03:10;13.27;;;4.60;;
13816;SDS011;6979;52.116;5.286;2024-01-25T03:05:37;17.27;;;5.33;;
13816;SDS011;6979;52.116;5.286;2024-01-25T03:08:11;12.33;;;5.10;;
13816;SDS011;6979;52.116;5.286;2024-01-25T03:10:38;14.17;;;4.23;;
13816;SDS011;6979;52.116;5.286;2024-01-25T03:13:05;13.13;;;4.23;;
13816;SDS011;6979;52.116;5.286;2024-01-25T03:15:33;12.10;;;4.23;;
13816;SDS011;6979;52.116;5.286;2024-01-25T03:18:01;18.23;;;5.13;;
13816;SDS011;6979;52.116;5.286;2024-01-25T03:20:28;12.63;;;4.50;;
13816;SDS011;6979;52.116;5.286;2024-01-25T03:22:55;11.33;;;5.40;;
13816;SDS011;6979;52.116;5.286;2024-01-25T03:25:23;15.87;;;4.83;;
13816;SDS011;6979;52.116;5.286;2024-01-25T03:27:50;13.73;;;4.70;;
13816;SDS011;6979;52.116;5.286;2024-01-25T03:30:17;14.60;;;4.40;;
13816;SDS011;6979;52.116;5.286;2024-01-25T03:32:48;13.53;;;4.60;;
13816;SDS011;6979;52.116;5.286;2024-01-25T03:35:20;11.30;;;4.77;;
13816;SDS011;6979;52.116;5.286;2024-01-25T03:37:47;12.63;;;4.17;;
13816;SDS011;6979;52.116;5.286;2024-01-25T03:40:14;11.53;;;4.77;;
13816;SDS011;6979;52.116;5.286;2024-01-25T03:42:40;17.60;;;5.33;;
13816;SDS011;6979;52.116;5.286;2024-01-25T03:45:07;9.23;;;3.57;;
13816;SDS011;6979;52.116;5.286;2024-01-25T03:47:35;11.07;;;4.33;;
13816;SDS011;6979;52.116;5.286;2024-01-25T03:50:03;8.67;;;3.83;;
13816;SDS011;6979;52.116;5.286;2024-01-25T03:52:31;12.87;;;3.37;;
13816;SDS011;6979;52.116;5.286;2024-01-25T03:54:58;20.03;;;6.17;;
13816;SDS011;6979;52.116;5.286;2024-01-25T03:57:25;10.63;;;4.47;;
13816;SDS011;6979;52.116;5.286;2024-01-25T03:59:52;8.97;;;3.97;;
13816;SDS011;6979;52.116;5.286;2024-01-25T04:02:19;10.53;;;4.30;;
13816;SDS011;6979;52.116;5.286;2024-01-25T04:04:46;13.60;;;4.83;;
13816;SDS011;6979;52.116;5.286;2024-01-25T04:07:14;15.33;;;4.60;;
13816;SDS011;6979;52.116;5.286;2024-01-25T04:09:40;9.43;;;4.20;;
13816;SDS011;6979;52.116;5.286;2024-01-25T04:12:09;12.10;;;4.43;;
13816;SDS011;6979;52.116;5.286;2024-01-25T04:14:36;13.87;;;5.70;;
13816;SDS011;6979;52.116;5.286;2024-01-25T04:17:03;14.53;;;5.30;;
13816;SDS011;6979;52.116;5.286;2024-01-25T04:19:30;9.43;;;3.20;;
13816;SDS011;6979;52.116;5.286;2024-01-25T04:21:57;10.17;;;3.90;;
13816;SDS011;6979;52.116;5.286;2024-01-25T04:24:25;11.80;;;4.10;;
13816;SDS011;6979;52.116;5.286;2024-01-25T04:26:54;10.17;;;3.93;;
13816;SDS011;6979;52.116;5.286;2024-01-25T04:29:21;8.67;;;3.90;;
13816;SDS011;6979;52.116;5.286;2024-01-25T04:31:48;14.13;;;4.90;;
13816;SDS011;6979;52.116;5.286;2024-01-25T04:34:15;14.90;;;4.70;;
13816;SDS011;6979;52.116;5.286;2024-01-25T04:36:42;10.67;;;4.10;;
13816;SDS011;6979;52.116;5.286;2024-01-25T04:39:09;12.57;;;4.17;;
13816;SDS011;6979;52.116;5.286;2024-01-25T04:41:37;10.90;;;4.30;;
13816;SDS011;6979;52.116;5.286;2024-01-25T04:44:04;12.03;;;4.67;;
13816;SDS011;6979;52.116;5.286;2024-01-25T04:46:31;11.00;;;4.30;;
13816;SDS011;6979;52.116;5.286;2024-01-25T04:49:01;11.77;;;3.80;;
13816;SDS011;6979;52.116;5.286;2024-01-25T04:51:28;15.17;;;4.40;;
13816;SDS011;6979;52.116;5.286;2024-01-25T04:53:55;8.50;;;3.73;;
13816;SDS011;6979;52.116;5.286;2024-01-25T04:56:22;12.43;;;4.33;;
13816;SDS011;6979;52.116;5.286;2024-01-25T04:58:55;13.90;;;4.50;;
13816;SDS011;6979;52.116;5.286;2024-01-25T05:01:22;12.33;;;4.27;;
13816;SDS011;6979;52.116;5.286;2024-01-25T05:03:49;12.80;;;4.77;;
13816;SDS011;6979;52.116;5.286;2024-01-25T05:06:16;17.30;;;4.83;;
13816;SDS011;6979;52.116;5.286;2024-01-25T05:08:43;13.07;;;4.67;;
13816;SDS011;6979;52.116;5.286;2024-01-25T05:11:13;12.23;;;4.17;;
13816;SDS011;6979;52.116;5.286;2024-01-25T05:13:40;15.60;;;4.40;;
13816;SDS011;6979;52.116;5.286;2024-01-25T05:16:09;15.47;;;5.30;;
13816;SDS011;6979;52.116;5.286;2024-01-25T05:18:37;10.07;;;4.33;;
13816;SDS011;6979;52.116;5.286;2024-01-25T05:21:04;10.03;;;3.87;;
13816;SDS011;6979;52.116;5.286;2024-01-25T05:23:31;14.07;;;5.00;;
13816;SDS011;6979;52.116;5.286;2024-01-25T05:25:58;13.53;;;4.80;;
13816;SDS011;6979;52.116;5.286;2024-01-25T05:28:25;15.10;;;4.53;;
13816;SDS011;6979;52.116;5.286;2024-01-25T05:30:52;14.33;;;4.57;;
13816;SDS011;6979;52.116;5.286;2024-01-25T05:33:20;11.10;;;4.37;;
13816;SDS011;6979;52.116;5.286;2024-01-25T05:35:47;15.20;;;4.47;;
13816;SDS011;6979;52.116;5.286;2024-01-25T05:38:17;13.63;;;5.00;;
13816;SDS011;6979;52.116;5.286;2024-01-25T05:40:46;14.43;;;4.83;;
13816;SDS011;6979;52.116;5.286;2024-01-25T05:43:13;10.77;;;4.77;;
13816;SDS011;6979;52.116;5.286;2024-01-25T05:45:40;17.67;;;5.10;;
13816;SDS011;6979;52.116;5.286;2024-01-25T05:48:07;13.10;;;4.87;;
13816;SDS011;6979;52.116;5.286;2024-01-25T05:50:35;10.57;;;4.33;;
13816;SDS011;6979;52.116;5.286;2024-01-25T05:53:02;16.20;;;5.63;;
13816;SDS011;6979;52.116;5.286;2024-01-25T05:55:29;11.40;;;5.00;;
13816;SDS011;6979;52.116;5.286;2024-01-25T05:57:56;10.40;;;4.97;;
13816;SDS011;6979;52.116;5.286;2024-01-25T06:00:23;13.20;;;4.60;;
13816;SDS011;6979;52.116;5.286;2024-01-25T06:02:50;13.73;;;4.53;;
13816;SDS011;6979;52.116;5.286;2024-01-25T06:05:17;11.17;;;4.57;;
13816;SDS011;6979;52.116;5.286;2024-01-25T06:07:46;8.93;;;4.57;;
13816;SDS011;6979;52.116;5.286;2024-01-25T06:10:14;15.23;;;4.73;;
13816;SDS011;6979;52.116;5.286;2024-01-25T06:12:41;16.20;;;5.70;;
13816;SDS011;6979;52.116;5.286;2024-01-25T06:15:08;11.53;;;3.97;;
13816;SDS011;6979;52.116;5.286;2024-01-25T06:17:35;10.07;;;4.63;;
13816;SDS011;6979;52.116;5.286;2024-01-25T06:20:03;12.50;;;4.17;;
13816;SDS011;6979;52.116;5.286;2024-01-25T06:22:33;12.97;;;4.43;;
13816;SDS011;6979;52.116;5.286;2024-01-25T06:25:02;10.60;;;4.33;;
13816;SDS011;6979;52.116;5.286;2024-01-25T06:27:29;11.23;;;5.30;;
13816;SDS011;6979;52.116;5.286;2024-01-25T06:29:56;13.03;;;3.90;;
13816;SDS011;6979;52.116;5.286;2024-01-25T06:32:23;8.43;;;4.13;;
13816;SDS011;6979;52.116;5.286;2024-01-25T06:34:53;12.33;;;4.43;;
13816;SDS011;6979;52.116;5.286;2024-01-25T06:37:20;11.57;;;5.37;;
13816;SDS011;6979;52.116;5.286;2024-01-25T06:39:47;17.03;;;5.73;;
13816;SDS011;6979;52.116;5.286;2024-01-25T06:42:15;12.33;;;5.03;;
13816;SDS011;6979;52.116;5.286;2024-01-25T06:44:42;10.33;;;4.87;;
13816;SDS011;6979;52.116;5.286;2024-01-25T06:47:09;11.37;;;4.30;;
13816;SDS011;6979;52.116;5.286;2024-01-25T06:49:36;9.60;;;4.30;;
13816;SDS011;6979;52.116;5.286;2024-01-25T06:52:05;11.23;;;4.20;;
13816;SDS011;6979;52.116;5.286;2024-01-25T06:54:32;14.00;;;4.87;;
13816;SDS011;6979;52.116;5.286;2024-01-25T06:56:59;14.63;;;4.97;;
13816;SDS011;6979;52.116;5.286;2024-01-25T06:59:27;16.20;;;4.53;;
13816;SDS011;6979;52.116;5.286;2024-01-25T07:01:54;11.33;;;4.60;;
13816;SDS011;6979;52.116;5.286;2024-01-25T07:04:21;11.67;;;4.40;;
13816;SDS011;6979;52.116;5.286;2024-01-25T07:06:48;11.00;;;4.50;;
13816;SDS011;6979;52.116;5.286;2024-01-25T07:09:15;10.83;;;4.20;;
13816;SDS011;6979;52.116;5.286;2024-01-25T07:11:42;9.77;;;5.27;;
13816;SDS011;6979;52.116;5.286;2024-01-25T07:14:09;11.07;;;4.80;;
13816;SDS011;6979;52.116;5.286;2024-01-25T07:16:37;10.90;;;5.70;;
13816;SDS011;6979;52.116;5.286;2024-01-25T07:19:04;11.17;;;5.20;;
13816;SDS011;6979;52.116;5.286;2024-01-25T07:21:31;13.90;;;4.90;;
13816;SDS011;6979;52.116;5.286;2024-01-25T07:23:59;10.60;;;4.80;;
13816;SDS011;6979;52.116;5.286;2024-01-25T07:26:25;10.73;;;4.80;;
13816;SDS011;6979;52.116;5.286;2024-01-25T07:28:52;10.60;;;5.10;;
13816;SDS011;6979;52.116;5.286;2024-01-25T07:31:23;15.50;;;5.93;;
13816;SDS011;6979;52.116;5.286;2024-01-25T07:33:51;12.40;;;4.60;;
13816;SDS011;6979;52.116;5.286;2024-01-25T07:36:18;13.60;;;5.43;;
13816;SDS011;6979;52.116;5.286;2024-01-25T07:38:47;16.27;;;4.93;;
13816;SDS011;6979;52.116;5.286;2024-01-25T07:41:16;14.13;;;5.80;;
13816;SDS011;6979;52.116;5.286;2024-01-25T07:43:43;21.27;;;7.00;;
13816;SDS011;6979;52.116;5.286;2024-01-25T07:46:10;11.47;;;5.27;;
13816;SDS011;6979;52.116;5.286;2024-01-25T07:48:40;13.43;;;5.83;;
13816;SDS011;6979;52.116;5.286;2024-01-25T07:51:12;14.63;;;6.87;;
13816;SDS011;6979;52.116;5.286;2024-01-25T07:53:39;19.07;;;7.80;;
13816;SDS011;6979;52.116;5.286;2024-01-25T07:56:07;18.03;;;9.13;;
13816;SDS011;6979;52.116;5.286;2024-01-25T07:58:36;16.60;;;10.03;;
13816;SDS011;6979;52.116;5.286;2024-01-25T08:01:03;15.57;;;10.00;;
13816;SDS011;6979;52.116;5.286;2024-01-25T08:03:31;21.97;;;12.37;;
13816;SDS011;6979;52.116;5.286;2024-01-25T08:05:58;19.53;;;11.67;;
13816;SDS011;6979;52.116;5.286;2024-01-25T08:08:27;21.70;;;12.03;;
13816;SDS011;6979;52.116;5.286;2024-01-25T08:10:54;17.70;;;12.30;;
13816;SDS011;6979;52.116;5.286;2024-01-25T08:13:21;19.60;;;11.93;;
13816;SDS011;6979;52.116;5.286;2024-01-25T08:15:48;24.47;;;12.87;;
13816;SDS011;6979;52.116;5.286;2024-01-25T08:18:18;21.53;;;11.00;;
13816;SDS011;6979;52.116;5.286;2024-01-25T08:20:49;20.40;;;11.40;;
13816;SDS011;6979;52.116;5.286;2024-01-25T08:23:18;22.67;;;10.47;;
13816;SDS011;6979;52.116;5.286;2024-01-25T08:25:46;18.23;;;10.97;;
13816;SDS011;6979;52.116;5.286;2024-01-25T08:28:13;16.10;;;9.17;;
13816;SDS011;6979;52.116;5.286;2024-01-25T08:30:41;15.73;;;8.03;;
13816;SDS011;6979;52.116;5.286;2024-01-25T08:33:07;14.10;;;7.20;;
13816;SDS011;6979;52.116;5.286;2024-01-25T08:35:34;12.70;;;6.97;;
13816;SDS011;6979;52.116;5.286;2024-01-25T08:38:01;12.03;;;6.20;;
13816;SDS011;6979;52.116;5.286;2024-01-25T08:40:29;17.13;;;6.40;;
13816;SDS011;6979;52.116;5.286;2024-01-25T08:42:57;10.73;;;5.80;;
13816;SDS011;6979;52.116;5.286;2024-01-25T08:45:24;14.10;;;5.70;;
13816;SDS011;6979;52.116;5.286;2024-01-25T08:47:51;11.37;;;5.83;;
13816;SDS011;6979;52.116;5.286;2024-01-25T08:50:18;14.90;;;5.17;;
13816;SDS011;6979;52.116;5.286;2024-01-25T08:52:44;19.50;;;6.43;;
13816;SDS011;6979;52.116;5.286;2024-01-25T08:55:11;11.57;;;5.43;;
13816;SDS011;6979;52.116;5.286;2024-01-25T08:57:39;13.57;;;4.80;;
13816;SDS011;6979;52.116;5.286;2024-01-25T09:00:10;15.50;;;5.33;;
13816;SDS011;6979;52.116;5.286;2024-01-25T09:02:38;11.37;;;5.57;;
13816;SDS011;6979;52.116;5.286;2024-01-25T09:05:05;12.23;;;5.50;;
13816;SDS011;6979;52.116;5.286;2024-01-25T09:07:33;9.17;;;5.60;;
13816;SDS011;6979;52.116;5.286;2024-01-25T09:10:03;13.80;;;5.30;;
13816;SDS011;6979;52.116;5.286;2024-01-25T09:12:31;12.30;;;4.80;;
13816;SDS011;6979;52.116;5.286;2024-01-25T09:14:58;12.53;;;5.60;;
13816;SDS011;6979;52.116;5.286;2024-01-25T09:17:34;15.70;;;5.73;;
13816;SDS011;6979;52.116;5.286;2024-01-25T09:20:02;11.20;;;4.83;;
13816;SDS011;6979;52.116;5.286;2024-01-25T09:22:32;9.17;;;5.13;;
13816;SDS011;6979;52.116;5.286;2024-01-25T09:24:59;11.70;;;5.27;;
13816;SDS011;6979;52.116;5.286;2024-01-25T09:27:29;14.33;;;5.70;;
13816;SDS011;6979;52.116;5.286;2024-01-25T09:29:56;13.63;;;6.03;;
13816;SDS011;6979;52.116;5.286;2024-01-25T09:32:23;15.73;;;5.90;;
13816;SDS011;6979;52.116;5.286;2024-01-25T09:34:52;14.07;;;6.77;;
13816;SDS011;6979;52.116;5.286;2024-01-25T09:37:19;16.10;;;6.37;;
13816;SDS011;6979;52.116;5.286;2024-01-25T09:39:48;15.73;;;5.87;;
13816;SDS011;6979;52.116;5.286;2024-01-25T09:42:16;10.90;;;5.43;;
13816;SDS011;6979;52.116;5.286;2024-01-25T09:44:44;14.63;;;6.00;;
13816;SDS011;6979;52.116;5.286;2024-01-25T09:47:11;13.67;;;6.37;;
13816;SDS011;6979;52.116;5.286;2024-01-25T09:49:38;16.13;;;6.53;;
13816;SDS011;6979;52.116;5.286;2024-01-25T09:52:08;18.27;;;5.87;;
13816;SDS011;6979;52.116;5.286;2024-01-25T09:54:39;13.13;;;6.53;;
13816;SDS011;6979;52.116;5.286;2024-01-25T09:57:08;15.90;;;5.90;;
13816;SDS011;6979;52.116;5.286;2024-01-25T09:59:42;12.33;;;5.10;;
13816;SDS011;6979;52.116;5.286;2024-01-25T10:02:09;12.47;;;5.43;;
13816;SDS011;6979;52.116;5.286;2024-01-25T10:04:36;17.83;;;7.03;;
13816;SDS011;6979;52.116;5.286;2024-01-25T10:07:03;16.90;;;5.50;;
13816;SDS011;6979;52.116;5.286;2024-01-25T10:09:32;20.77;;;6.67;;
13816;SDS011;6979;52.116;5.286;2024-01-25T10:12:05;15.80;;;5.77;;
13816;SDS011;6979;52.116;5.286;2024-01-25T10:14:32;14.10;;;6.37;;
13816;SDS011;6979;52.116;5.286;2024-01-25T10:17:00;14.83;;;5.90;;
13816;SDS011;6979;52.116;5.286;2024-01-25T10:19:27;11.23;;;5.83;;
13816;SDS011;6979;52.116;5.286;2024-01-25T10:21:55;15.73;;;6.00;;
13816;SDS011;6979;52.116;5.286;2024-01-25T10:24:22;9.37;;;5.23;;
13816;SDS011;6979;52.116;5.286;2024-01-25T10:26:51;13.73;;;5.47;;
13816;SDS011;6979;52.116;5.286;2024-01-25T10:29:25;15.10;;;5.57;;
13816;SDS011;6979;52.116;5.286;2024-01-25T10:31:52;19.50;;;7.30;;
13816;SDS011;6979;52.116;5.286;2024-01-25T10:34:19;14.93;;;6.13;;
13816;SDS011;6979;52.116;5.286;2024-01-25T10:36:49;19.77;;;8.20;;
13816;SDS011;6979;52.116;5.286;2024-01-25T10:39:17;14.23;;;5.97;;
13816;SDS011;6979;52.116;5.286;2024-01-25T10:41:45;15.43;;;7.33;;
13816;SDS011;6979;52.116;5.286;2024-01-25T10:44:16;22.17;;;7.40;;
13816;SDS011;6979;52.116;5.286;2024-01-25T10:46:45;15.33;;;7.37;;
13816;SDS011;6979;52.116;5.286;2024-01-25T10:49:13;16.57;;;7.23;;
13816;SDS011;6979;52.116;5.286;2024-01-25T10:51:40;15.60;;;6.67;;
13816;SDS011;6979;52.116;5.286;2024-01-25T10:54:08;15.10;;;5.80;;
13816;SDS011;6979;52.116;5.286;2024-01-25T10:56:36;17.97;;;7.77;;
13816;SDS011;6979;52.116;5.286;2024-01-25T10:59:04;15.83;;;6.73;;
13816;SDS011;6979;52.116;5.286;2024-01-25T11:01:32;21.70;;;6.83;;
13816;SDS011;6979;52.116;5.286;2024-01-25T11:04:02;16.50;;;6.23;;
13816;SDS011;6979;52.116;5.286;2024-01-25T11:06:29;20.50;;;7.63;;
13816;SDS011;6979;52.116;5.286;2024-01-25T11:09:03;16.60;;;7.33;;
13816;SDS011;6979;52.116;5.286;2024-01-25T11:11:31;15.83;;;7.37;;
13816;SDS011;6979;52.116;5.286;2024-01-25T11:13:58;22.57;;;7.77;;
13816;SDS011;6979;52.116;5.286;2024-01-25T11:16:28;14.53;;;7.30;;
13816;SDS011;6979;52.116;5.286;2024-01-25T11:19:00;16.87;;;7.13;;
13816;SDS011;6979;52.116;5.286;2024-01-25T11:21:39;11.73;;;6.83;;
13816;SDS011;6979;52.116;5.286;2024-01-25T11:24:11;17.57;;;7.80;;
13816;SDS011;6979;52.116;5.286;2024-01-25T11:26:39;20.00;;;7.90;;
13816;SDS011;6979;52.116;5.286;2024-01-25T11:29:09;20.50;;;7.83;;
13816;SDS011;6979;52.116;5.286;2024-01-25T11:31:41;23.70;;;8.10;;
13816;SDS011;6979;52.116;5.286;2024-01-25T11:34:09;19.70;;;7.70;;
13816;SDS011;6979;52.116;5.286;2024-01-25T11:36:40;16.97;;;8.03;;
13816;SDS011;6979;52.116;5.286;2024-01-25T11:39:08;19.23;;;7.80;;
13816;SDS011;6979;52.116;5.286;2024-01-25T11:41:36;18.67;;;8.27;;
13816;SDS011;6979;52.116;5.286;2024-01-25T11:44:03;16.43;;;7.40;;
13816;SDS011;6979;52.116;5.286;2024-01-25T11:46:30;16.47;;;7.67;;
13816;SDS011;6979;52.116;5.286;2024-01-25T11:48:58;14.97;;;6.87;;
13816;SDS011;6979;52.116;5.286;2024-01-25T11:51:29;18.90;;;6.53;;
13816;SDS011;6979;52.116;5.286;2024-01-25T11:53:56;20.90;;;6.90;;
13816;SDS011;6979;52.116;5.286;2024-01-25T11:56:23;16.90;;;6.47;;
13816;SDS011;6979;52.116;5.286;2024-01-25T11:58:52;18.07;;;7.50;;
13816;SDS011;6979;52.116;5.286;2024-01-25T12:01:21;16.17;;;7.17;;
13816;SDS011;6979;52.116;5.286;2024-01-25T12:03:49;15.77;;;6.97;;
13816;SDS011;6979;52.116;5.286;2024-01-25T12:06:18;20.90;;;7.80;;
13816;SDS011;6979;52.116;5.286;2024-01-25T12:08:47;19.10;;;8.50;;
13816;SDS011;6979;52.116;5.286;2024-01-25T12:11:16;20.50;;;7.97;;
13816;SDS011;6979;52.116;5.286;2024-01-25T12:13:44;16.30;;;7.17;;
13816;SDS011;6979;52.116;5.286;2024-01-25T12:16:12;17.17;;;7.53;;
13816;SDS011;6979;52.116;5.286;2024-01-25T12:18:42;18.80;;;7.47;;
13816;SDS011;6979;52.116;5.286;2024-01-25T12:21:09;14.63;;;7.50;;
13816;SDS011;6979;52.116;5.286;2024-01-25T12:23:37;17.60;;;7.27;;
13816;SDS011;6979;52.116;5.286;2024-01-25T12:26:06;20.83;;;8.47;;
13816;SDS011;6979;52.116;5.286;2024-01-25T12:28:34;16.67;;;7.90;;
13816;SDS011;6979;52.116;5.286;2024-01-25T12:31:02;18.57;;;8.07;;
13816;SDS011;6979;52.116;5.286;2024-01-25T12:33:34;21.33;;;8.40;;
13816;SDS011;6979;52.116;5.286;2024-01-25T12:36:01;17.43;;;8.63;;
13816;SDS011;6979;52.116;5.286;2024-01-25T12:38:29;22.60;;;8.73;;
13816;SDS011;6979;52.116;5.286;2024-01-25T12:40:58;21.53;;;10.13;;
13816;SDS011;6979;52.116;5.286;2024-01-25T12:43:27;15.30;;;7.93;;
13816;SDS011;6979;52.116;5.286;2024-01-25T12:45:55;15.47;;;7.53;;
13816;SDS011;6979;52.116;5.286;2024-01-25T12:48:22;22.80;;;9.57;;
13816;SDS011;6979;52.116;5.286;2024-01-25T12:50:49;21.57;;;8.37;;
13816;SDS011;6979;52.116;5.286;2024-01-25T12:53:19;17.33;;;8.00;;
13816;SDS011;6979;52.116;5.286;2024-01-25T12:55:47;18.40;;;7.90;;
13816;SDS011;6979;52.116;5.286;2024-01-25T12:58:14;15.00;;;6.73;;
13816;SDS011;6979;52.116;5.286;2024-01-25T13:00:42;15.23;;;7.60;;
13816;SDS011;6979;52.116;5.286;2024-01-25T13:03:10;19.73;;;8.87;;
13816;SDS011;6979;52.116;5.286;2024-01-25T13:05:37;20.10;;;8.50;;
13816;SDS011;6979;52.116;5.286;2024-01-25T13:08:05;21.70;;;8.83;;
13816;SDS011;6979;52.116;5.286;2024-01-25T13:10:34;21.80;;;8.20;;
13816;SDS011;6979;52.116;5.286;2024-01-25T13:13:01;18.63;;;8.57;;
13816;SDS011;6979;52.116;5.286;2024-01-25T13:15:28;18.53;;;8.87;;
13816;SDS011;6979;52.116;5.286;2024-01-25T13:17:57;14.60;;;7.33;;
13816;SDS011;6979;52.116;5.286;2024-01-25T13:20:26;14.47;;;7.90;;
13816;SDS011;6979;52.116;5.286;2024-01-25T13:22:53;15.17;;;8.03;;
13816;SDS011;6979;52.116;5.286;2024-01-25T13:25:20;20.47;;;9.30;;
13816;SDS011;6979;52.116;5.286;2024-01-25T13:27:46;20.57;;;8.83;;
13816;SDS011;6979;52.116;5.286;2024-01-25T13:30:14;15.27;;;8.57;;
13816;SDS011;6979;52.116;5.286;2024-01-25T13:32:41;19.17;;;8.43;;
13816;SDS011;6979;52.116;5.286;2024-01-25T13:35:09;18.43;;;9.57;;
13816;SDS011;6979;52.116;5.286;2024-01-25T13:37:36;21.67;;;9.33;;
13816;SDS011;6979;52.116;5.286;2024-01-25T13:40:06;18.33;;;8.63;;
13816;SDS011;6979;52.116;5.286;2024-01-25T13:42:34;14.30;;;8.43;;
13816;SDS011;6979;52.116;5.286;2024-01-25T13:45:01;21.10;;;9.23;;
13816;SDS011;6979;52.116;5.286;2024-01-25T13:47:28;17.60;;;7.60;;
13816;SDS011;6979;52.116;5.286;2024-01-25T13:49:55;16.63;;;8.17;;
13816;SDS011;6979;52.116;5.286;2024-01-25T13:52:24;16.23;;;8.23;;
13816;SDS011;6979;52.116;5.286;2024-01-25T13:54:50;19.53;;;8.33;;
13816;SDS011;6979;52.116;5.286;2024-01-25T13:57:17;18.77;;;8.60;;
13816;SDS011;6979;52.116;5.286;2024-01-25T13:59:45;21.50;;;9.80;;
13816;SDS011;6979;52.116;5.286;2024-01-25T14:02:13;16.97;;;8.87;;
13816;SDS011;6979;52.116;5.286;2024-01-25T14:04:40;21.93;;;9.53;;
13816;SDS011;6979;52.116;5.286;2024-01-25T14:07:07;28.37;;;10.80;;
13816;SDS011;6979;52.116;5.286;2024-01-25T14:09:35;20.80;;;9.07;;
13816;SDS011;6979;52.116;5.286;2024-01-25T14:12:03;15.77;;;9.20;;
13816;SDS011;6979;52.116;5.286;2024-01-25T14:14:30;20.13;;;11.47;;
13816;SDS011;6979;52.116;5.286;2024-01-25T14:16:58;23.20;;;11.03;;
13816;SDS011;6979;52.116;5.286;2024-01-25T14:19:26;23.30;;;10.37;;
13816;SDS011;6979;52.116;5.286;2024-01-25T14:21:52;20.07;;;10.13;;
13816;SDS011;6979;52.116;5.286;2024-01-25T14:24:19;21.93;;;10.57;;
13816;SDS011;6979;52.116;5.286;2024-01-25T14:26:48;18.93;;;10.63;;
13816;SDS011;6979;52.116;5.286;2024-01-25T14:29:15;24.63;;;10.43;;
13816;SDS011;6979;52.116;5.286;2024-01-25T14:31:42;21.23;;;10.30;;
13816;SDS011;6979;52.116;5.286;2024-01-25T14:34:10;18.20;;;9.93;;
13816;SDS011;6979;52.116;5.286;2024-01-25T14:36:37;17.03;;;9.20;;
13816;SDS011;6979;52.116;5.286;2024-01-25T14:39:04;18.30;;;10.50;;
13816;SDS011;6979;52.116;5.286;2024-01-25T14:41:33;17.53;;;10.07;;
13816;SDS011;6979;52.116;5.286;2024-01-25T14:44:01;18.47;;;9.83;;
13816;SDS011;6979;52.116;5.286;2024-01-25T14:46:28;25.47;;;11.27;;
13816;SDS011;6979;52.116;5.286;2024-01-25T14:48:55;22.80;;;11.93;;
13816;SDS011;6979;52.116;5.286;2024-01-25T14:51:25;24.50;;;13.37;;